sensor_id;sensor_type;location;lat;lon;timestamp;P1;durP1;ratioP1;P2;durP2;ratioP2
33347;SDS011;19707;51.158;17.124;2022-12-18T00:01:32;71.92;;;26.57;;
33347;SDS011;19707;51.158;17.124;2022-12-18T00:04:36;64.40;;;24.55;;
33347;SDS011;19707;51.158;17.124;2022-12-18T00:07:38;66.20;;;25.23;;
33347;SDS011;19707;51.158;17.124;2022-12-18T00:10:39;59.55;;;24.92;;
33347;SDS011;19707;51.158;17.124;2022-12-18T00:13:41;72.62;;;27.87;;
33347;SDS011;19707;51.158;17.124;2022-12-18T00:16:44;80.42;;;29.77;;
33347;SDS011;19707;51.158;17.124;2022-12-18T00:19:47;68.65;;;25.92;;
33347;SDS011;19707;51.158;17.124;2022-12-18T00:22:48;80.80;;;28.55;;
33347;SDS011;19707;51.158;17.124;2022-12-18T00:25:50;73.78;;;28.02;;
33347;SDS011;19707;51.158;17.124;2022-12-18T00:28:52;76.00;;;27.15;;
33347;SDS011;19707;51.158;17.124;2022-12-18T00:31:53;90.72;;;32.70;;
33347;SDS011;19707;51.158;17.124;2022-12-18T00:34:55;73.62;;;28.02;;
33347;SDS011;19707;51.158;17.124;2022-12-18T00:37:57;71.47;;;28.92;;
33347;SDS011;19707;51.158;17.124;2022-12-18T00:40:59;72.70;;;28.77;;
33347;SDS011;19707;51.158;17.124;2022-12-18T00:44:02;66.22;;;26.52;;
33347;SDS011;19707;51.158;17.124;2022-12-18T00:47:04;76.33;;;26.93;;
33347;SDS011;19707;51.158;17.124;2022-12-18T00:50:06;76.40;;;27.48;;
33347;SDS011;19707;51.158;17.124;2022-12-18T00:53:09;73.95;;;28.70;;
33347;SDS011;19707;51.158;17.124;2022-12-18T00:56:12;77.87;;;28.42;;
33347;SDS011;19707;51.158;17.124;2022-12-18T00:59:13;65.03;;;27.75;;
33347;SDS011;19707;51.158;17.124;2022-12-18T01:02:17;67.62;;;26.80;;
33347;SDS011;19707;51.158;17.124;2022-12-18T01:05:19;71.77;;;26.82;;
33347;SDS011;19707;51.158;17.124;2022-12-18T01:08:21;77.45;;;27.85;;
33347;SDS011;19707;51.158;17.124;2022-12-18T01:11:23;66.40;;;24.72;;
33347;SDS011;19707;51.158;17.124;2022-12-18T01:14:24;73.67;;;26.23;;
33347;SDS011;19707;51.158;17.124;2022-12-18T01:17:26;70.30;;;25.72;;
33347;SDS011;19707;51.158;17.124;2022-12-18T01:20:27;73.90;;;28.65;;
33347;SDS011;19707;51.158;17.124;2022-12-18T01:23:29;74.22;;;27.70;;
33347;SDS011;19707;51.158;17.124;2022-12-18T01:26:31;63.78;;;25.95;;
33347;SDS011;19707;51.158;17.124;2022-12-18T01:29:34;71.42;;;26.77;;
33347;SDS011;19707;51.158;17.124;2022-12-18T01:32:37;65.22;;;25.37;;
33347;SDS011;19707;51.158;17.124;2022-12-18T01:35:42;70.75;;;26.75;;
33347;SDS011;19707;51.158;17.124;2022-12-18T01:38:44;83.80;;;31.48;;
33347;SDS011;19707;51.158;17.124;2022-12-18T01:41:46;96.28;;;33.45;;
33347;SDS011;19707;51.158;17.124;2022-12-18T01:45:08;93.72;;;36.13;;
33347;SDS011;19707;51.158;17.124;2022-12-18T01:48:20;98.95;;;31.73;;
33347;SDS011;19707;51.158;17.124;2022-12-18T01:51:22;98.82;;;33.10;;
33347;SDS011;19707;51.158;17.124;2022-12-18T01:54:24;87.92;;;32.42;;
33347;SDS011;19707;51.158;17.124;2022-12-18T01:57:29;79.65;;;30.70;;
33347;SDS011;19707;51.158;17.124;2022-12-18T02:00:33;86.37;;;29.27;;
33347;SDS011;19707;51.158;17.124;2022-12-18T02:03:36;69.05;;;27.58;;
33347;SDS011;19707;51.158;17.124;2022-12-18T02:06:40;74.58;;;27.30;;
33347;SDS011;19707;51.158;17.124;2022-12-18T02:09:53;74.00;;;29.18;;
33347;SDS011;19707;51.158;17.124;2022-12-18T02:13:23;70.83;;;27.73;;
33347;SDS011;19707;51.158;17.124;2022-12-18T02:17:01;65.83;;;25.60;;
33347;SDS011;19707;51.158;17.124;2022-12-18T02:20:27;67.20;;;26.70;;
33347;SDS011;19707;51.158;17.124;2022-12-18T02:27:13;72.05;;;27.58;;
33347;SDS011;19707;51.158;17.124;2022-12-18T02:30:16;60.33;;;25.32;;
33347;SDS011;19707;51.158;17.124;2022-12-18T02:33:18;72.10;;;27.05;;
33347;SDS011;19707;51.158;17.124;2022-12-18T02:36:22;61.88;;;25.50;;
33347;SDS011;19707;51.158;17.124;2022-12-18T02:39:25;68.52;;;25.25;;
33347;SDS011;19707;51.158;17.124;2022-12-18T02:42:28;62.65;;;26.00;;
33347;SDS011;19707;51.158;17.124;2022-12-18T02:45:29;66.70;;;26.77;;
33347;SDS011;19707;51.158;17.124;2022-12-18T02:48:33;58.68;;;26.82;;
33347;SDS011;19707;51.158;17.124;2022-12-18T02:54:51;62.43;;;25.40;;
33347;SDS011;19707;51.158;17.124;2022-12-18T03:01:57;60.80;;;24.82;;
33347;SDS011;19707;51.158;17.124;2022-12-18T03:05:12;62.43;;;24.45;;
33347;SDS011;19707;51.158;17.124;2022-12-18T03:08:20;62.10;;;25.68;;
33347;SDS011;19707;51.158;17.124;2022-12-18T03:14:27;64.37;;;26.17;;
33347;SDS011;19707;51.158;17.124;2022-12-18T03:17:32;69.60;;;26.93;;
33347;SDS011;19707;51.158;17.124;2022-12-18T03:20:34;71.10;;;26.97;;
33347;SDS011;19707;51.158;17.124;2022-12-18T03:23:42;58.73;;;23.12;;
33347;SDS011;19707;51.158;17.124;2022-12-18T03:26:44;64.87;;;25.90;;
33347;SDS011;19707;51.158;17.124;2022-12-18T03:29:49;62.85;;;25.40;;
33347;SDS011;19707;51.158;17.124;2022-12-18T03:33:25;62.53;;;25.23;;
33347;SDS011;19707;51.158;17.124;2022-12-18T03:36:48;60.15;;;22.73;;
33347;SDS011;19707;51.158;17.124;2022-12-18T03:39:50;60.63;;;24.77;;
33347;SDS011;19707;51.158;17.124;2022-12-18T03:43:00;48.58;;;21.90;;
33347;SDS011;19707;51.158;17.124;2022-12-18T03:46:06;67.78;;;25.20;;
33347;SDS011;19707;51.158;17.124;2022-12-18T03:49:24;57.88;;;24.60;;
33347;SDS011;19707;51.158;17.124;2022-12-18T03:52:31;55.48;;;23.27;;
33347;SDS011;19707;51.158;17.124;2022-12-18T03:55:39;61.08;;;22.00;;
33347;SDS011;19707;51.158;17.124;2022-12-18T03:58:41;51.13;;;23.20;;
33347;SDS011;19707;51.158;17.124;2022-12-18T04:01:47;59.30;;;23.25;;
33347;SDS011;19707;51.158;17.124;2022-12-18T04:04:51;58.55;;;24.75;;
33347;SDS011;19707;51.158;17.124;2022-12-18T04:07:54;70.57;;;25.15;;
33347;SDS011;19707;51.158;17.124;2022-12-18T04:10:56;57.93;;;25.55;;
33347;SDS011;19707;51.158;17.124;2022-12-18T04:13:58;65.35;;;25.48;;
33347;SDS011;19707;51.158;17.124;2022-12-18T04:17:00;56.60;;;24.55;;
33347;SDS011;19707;51.158;17.124;2022-12-18T04:20:02;58.65;;;25.82;;
33347;SDS011;19707;51.158;17.124;2022-12-18T04:23:05;57.95;;;24.70;;
33347;SDS011;19707;51.158;17.124;2022-12-18T04:26:07;64.22;;;24.75;;
33347;SDS011;19707;51.158;17.124;2022-12-18T04:29:09;64.87;;;26.05;;
33347;SDS011;19707;51.158;17.124;2022-12-18T04:32:10;67.30;;;26.42;;
33347;SDS011;19707;51.158;17.124;2022-12-18T04:35:12;68.62;;;26.17;;
33347;SDS011;19707;51.158;17.124;2022-12-18T04:38:14;61.83;;;24.82;;
33347;SDS011;19707;51.158;17.124;2022-12-18T04:41:16;60.50;;;25.12;;
33347;SDS011;19707;51.158;17.124;2022-12-18T04:44:17;59.33;;;25.62;;
33347;SDS011;19707;51.158;17.124;2022-12-18T04:47:20;58.90;;;23.50;;
33347;SDS011;19707;51.158;17.124;2022-12-18T04:50:21;63.35;;;24.77;;
33347;SDS011;19707;51.158;17.124;2022-12-18T04:53:23;53.15;;;24.47;;
33347;SDS011;19707;51.158;17.124;2022-12-18T04:56:24;61.23;;;23.62;;
33347;SDS011;19707;51.158;17.124;2022-12-18T04:59:26;55.95;;;23.27;;
33347;SDS011;19707;51.158;17.124;2022-12-18T05:02:28;54.95;;;23.67;;
33347;SDS011;19707;51.158;17.124;2022-12-18T05:05:29;59.83;;;23.22;;
33347;SDS011;19707;51.158;17.124;2022-12-18T05:08:31;58.45;;;23.38;;
33347;SDS011;19707;51.158;17.124;2022-12-18T05:11:33;59.77;;;23.45;;
33347;SDS011;19707;51.158;17.124;2022-12-18T05:14:37;50.90;;;22.85;;
33347;SDS011;19707;51.158;17.124;2022-12-18T05:17:38;56.75;;;23.27;;
33347;SDS011;19707;51.158;17.124;2022-12-18T05:20:40;58.68;;;25.05;;
33347;SDS011;19707;51.158;17.124;2022-12-18T05:23:41;57.25;;;24.90;;
33347;SDS011;19707;51.158;17.124;2022-12-18T05:26:43;61.63;;;25.92;;
33347;SDS011;19707;51.158;17.124;2022-12-18T05:29:44;57.50;;;22.98;;
33347;SDS011;19707;51.158;17.124;2022-12-18T05:32:50;55.98;;;23.65;;
33347;SDS011;19707;51.158;17.124;2022-12-18T05:35:53;51.95;;;23.10;;
33347;SDS011;19707;51.158;17.124;2022-12-18T05:38:57;60.00;;;24.55;;
33347;SDS011;19707;51.158;17.124;2022-12-18T05:41:58;69.90;;;24.98;;
33347;SDS011;19707;51.158;17.124;2022-12-18T05:45:00;60.63;;;25.12;;
33347;SDS011;19707;51.158;17.124;2022-12-18T05:48:01;56.73;;;23.67;;
33347;SDS011;19707;51.158;17.124;2022-12-18T05:51:04;61.92;;;24.98;;
33347;SDS011;19707;51.158;17.124;2022-12-18T05:54:11;64.97;;;25.30;;
33347;SDS011;19707;51.158;17.124;2022-12-18T05:57:12;65.37;;;25.80;;
33347;SDS011;19707;51.158;17.124;2022-12-18T06:00:15;57.08;;;24.47;;
33347;SDS011;19707;51.158;17.124;2022-12-18T06:03:17;58.35;;;24.90;;
33347;SDS011;19707;51.158;17.124;2022-12-18T06:06:22;55.65;;;23.42;;
33347;SDS011;19707;51.158;17.124;2022-12-18T06:09:26;58.85;;;24.90;;
33347;SDS011;19707;51.158;17.124;2022-12-18T06:12:30;67.97;;;26.07;;
33347;SDS011;19707;51.158;17.124;2022-12-18T06:15:37;57.53;;;23.92;;
33347;SDS011;19707;51.158;17.124;2022-12-18T06:18:39;53.28;;;21.73;;
33347;SDS011;19707;51.158;17.124;2022-12-18T06:21:41;53.30;;;22.82;;
33347;SDS011;19707;51.158;17.124;2022-12-18T06:24:43;61.25;;;24.05;;
33347;SDS011;19707;51.158;17.124;2022-12-18T06:27:46;56.77;;;23.50;;
33347;SDS011;19707;51.158;17.124;2022-12-18T06:30:48;60.80;;;26.25;;
33347;SDS011;19707;51.158;17.124;2022-12-18T06:33:50;61.90;;;25.08;;
33347;SDS011;19707;51.158;17.124;2022-12-18T06:36:52;58.78;;;25.75;;
33347;SDS011;19707;51.158;17.124;2022-12-18T06:39:53;56.28;;;24.92;;
33347;SDS011;19707;51.158;17.124;2022-12-18T06:42:57;69.07;;;26.55;;
33347;SDS011;19707;51.158;17.124;2022-12-18T06:45:59;64.05;;;27.82;;
33347;SDS011;19707;51.158;17.124;2022-12-18T06:49:01;60.28;;;27.62;;
33347;SDS011;19707;51.158;17.124;2022-12-18T06:52:03;67.62;;;28.92;;
33347;SDS011;19707;51.158;17.124;2022-12-18T06:55:05;70.08;;;30.10;;
33347;SDS011;19707;51.158;17.124;2022-12-18T06:58:11;74.40;;;29.25;;
33347;SDS011;19707;51.158;17.124;2022-12-18T07:01:12;71.82;;;29.07;;
33347;SDS011;19707;51.158;17.124;2022-12-18T07:04:14;75.90;;;31.15;;
33347;SDS011;19707;51.158;17.124;2022-12-18T07:07:16;66.25;;;29.87;;
33347;SDS011;19707;51.158;17.124;2022-12-18T07:10:18;68.67;;;31.80;;
33347;SDS011;19707;51.158;17.124;2022-12-18T07:13:20;75.70;;;31.95;;
33347;SDS011;19707;51.158;17.124;2022-12-18T07:16:21;70.80;;;28.67;;
33347;SDS011;19707;51.158;17.124;2022-12-18T07:19:23;80.20;;;32.25;;
33347;SDS011;19707;51.158;17.124;2022-12-18T07:22:25;71.90;;;31.27;;
33347;SDS011;19707;51.158;17.124;2022-12-18T07:25:27;74.72;;;32.35;;
33347;SDS011;19707;51.158;17.124;2022-12-18T07:28:28;71.45;;;31.73;;
33347;SDS011;19707;51.158;17.124;2022-12-18T07:31:30;78.17;;;31.73;;
33347;SDS011;19707;51.158;17.124;2022-12-18T07:34:32;74.95;;;31.30;;
33347;SDS011;19707;51.158;17.124;2022-12-18T07:37:33;80.80;;;34.58;;
33347;SDS011;19707;51.158;17.124;2022-12-18T07:40:35;78.12;;;33.02;;
33347;SDS011;19707;51.158;17.124;2022-12-18T07:43:37;81.97;;;34.30;;
33347;SDS011;19707;51.158;17.124;2022-12-18T07:46:39;82.60;;;35.17;;
33347;SDS011;19707;51.158;17.124;2022-12-18T07:49:41;88.87;;;35.03;;
33347;SDS011;19707;51.158;17.124;2022-12-18T07:52:42;87.60;;;36.60;;
33347;SDS011;19707;51.158;17.124;2022-12-18T07:55:44;87.12;;;37.30;;
33347;SDS011;19707;51.158;17.124;2022-12-18T07:58:46;98.15;;;40.10;;
33347;SDS011;19707;51.158;17.124;2022-12-18T08:01:47;88.20;;;37.90;;
33347;SDS011;19707;51.158;17.124;2022-12-18T08:04:49;91.97;;;39.73;;
33347;SDS011;19707;51.158;17.124;2022-12-18T08:07:52;90.53;;;38.10;;
33347;SDS011;19707;51.158;17.124;2022-12-18T08:10:55;91.65;;;37.65;;
33347;SDS011;19707;51.158;17.124;2022-12-18T08:13:59;83.17;;;37.85;;
33347;SDS011;19707;51.158;17.124;2022-12-18T08:17:00;89.25;;;36.25;;
33347;SDS011;19707;51.158;17.124;2022-12-18T08:20:02;84.28;;;35.92;;
33347;SDS011;19707;51.158;17.124;2022-12-18T08:23:05;77.22;;;35.40;;
33347;SDS011;19707;51.158;17.124;2022-12-18T08:26:07;80.47;;;35.80;;
33347;SDS011;19707;51.158;17.124;2022-12-18T08:29:09;76.10;;;34.23;;
33347;SDS011;19707;51.158;17.124;2022-12-18T08:32:11;79.72;;;34.35;;
33347;SDS011;19707;51.158;17.124;2022-12-18T08:35:13;91.02;;;39.30;;
33347;SDS011;19707;51.158;17.124;2022-12-18T08:38:14;119.25;;;60.03;;
33347;SDS011;19707;51.158;17.124;2022-12-18T08:41:16;81.55;;;42.78;;
33347;SDS011;19707;51.158;17.124;2022-12-18T08:44:19;77.58;;;39.50;;
33347;SDS011;19707;51.158;17.124;2022-12-18T08:47:39;72.65;;;32.05;;
33347;SDS011;19707;51.158;17.124;2022-12-18T08:50:40;69.40;;;32.08;;
33347;SDS011;19707;51.158;17.124;2022-12-18T08:53:42;62.65;;;29.70;;
33347;SDS011;19707;51.158;17.124;2022-12-18T08:56:45;69.70;;;33.10;;
33347;SDS011;19707;51.158;17.124;2022-12-18T08:59:46;65.50;;;33.90;;
33347;SDS011;19707;51.158;17.124;2022-12-18T09:02:48;62.85;;;29.48;;
33347;SDS011;19707;51.158;17.124;2022-12-18T09:05:50;92.53;;;41.42;;
33347;SDS011;19707;51.158;17.124;2022-12-18T09:08:52;113.35;;;51.75;;
33347;SDS011;19707;51.158;17.124;2022-12-18T09:11:54;120.42;;;50.52;;
33347;SDS011;19707;51.158;17.124;2022-12-18T09:14:55;82.17;;;38.42;;
33347;SDS011;19707;51.158;17.124;2022-12-18T09:17:57;62.93;;;29.12;;
33347;SDS011;19707;51.158;17.124;2022-12-18T09:20:58;61.33;;;28.83;;
33347;SDS011;19707;51.158;17.124;2022-12-18T09:24:00;57.08;;;25.77;;
33347;SDS011;19707;51.158;17.124;2022-12-18T09:27:02;52.35;;;26.30;;
33347;SDS011;19707;51.158;17.124;2022-12-18T09:30:04;59.73;;;27.25;;
33347;SDS011;19707;51.158;17.124;2022-12-18T09:36:10;61.63;;;26.77;;
33347;SDS011;19707;51.158;17.124;2022-12-18T09:39:15;57.15;;;27.60;;
33347;SDS011;19707;51.158;17.124;2022-12-18T09:42:21;59.83;;;28.52;;
33347;SDS011;19707;51.158;17.124;2022-12-18T09:45:22;63.92;;;28.38;;
33347;SDS011;19707;51.158;17.124;2022-12-18T09:48:26;58.80;;;28.62;;
33347;SDS011;19707;51.158;17.124;2022-12-18T09:51:38;58.58;;;28.15;;
33347;SDS011;19707;51.158;17.124;2022-12-18T09:54:47;59.23;;;29.98;;
33347;SDS011;19707;51.158;17.124;2022-12-18T09:58:16;58.05;;;28.02;;
33347;SDS011;19707;51.158;17.124;2022-12-18T10:01:15;54.25;;;26.25;;
33347;SDS011;19707;51.158;17.124;2022-12-18T10:04:21;53.98;;;26.15;;
33347;SDS011;19707;51.158;17.124;2022-12-18T10:07:27;54.88;;;27.93;;
33347;SDS011;19707;51.158;17.124;2022-12-18T10:10:53;54.65;;;26.97;;
33347;SDS011;19707;51.158;17.124;2022-12-18T10:14:02;55.17;;;28.65;;
33347;SDS011;19707;51.158;17.124;2022-12-18T10:17:19;53.95;;;27.45;;
33347;SDS011;19707;51.158;17.124;2022-12-18T10:20:39;56.83;;;30.25;;
33347;SDS011;19707;51.158;17.124;2022-12-18T10:24:12;62.17;;;30.45;;
33347;SDS011;19707;51.158;17.124;2022-12-18T10:27:14;55.73;;;28.27;;
33347;SDS011;19707;51.158;17.124;2022-12-18T10:33:23;50.12;;;23.85;;
33347;SDS011;19707;51.158;17.124;2022-12-18T10:36:31;57.05;;;28.23;;
33347;SDS011;19707;51.158;17.124;2022-12-18T10:39:33;65.60;;;28.77;;
33347;SDS011;19707;51.158;17.124;2022-12-18T10:42:35;60.70;;;31.52;;
33347;SDS011;19707;51.158;17.124;2022-12-18T10:45:37;63.90;;;32.10;;
33347;SDS011;19707;51.158;17.124;2022-12-18T10:51:50;63.10;;;30.45;;
33347;SDS011;19707;51.158;17.124;2022-12-18T10:54:56;63.75;;;31.17;;
33347;SDS011;19707;51.158;17.124;2022-12-18T11:01:52;61.65;;;28.45;;
33347;SDS011;19707;51.158;17.124;2022-12-18T11:04:59;65.65;;;31.10;;
33347;SDS011;19707;51.158;17.124;2022-12-18T11:08:01;69.05;;;31.70;;
33347;SDS011;19707;51.158;17.124;2022-12-18T11:11:04;60.33;;;30.37;;
33347;SDS011;19707;51.158;17.124;2022-12-18T11:14:23;62.35;;;31.10;;
33347;SDS011;19707;51.158;17.124;2022-12-18T11:17:30;57.75;;;28.23;;
33347;SDS011;19707;51.158;17.124;2022-12-18T11:20:35;61.80;;;29.95;;
33347;SDS011;19707;51.158;17.124;2022-12-18T11:23:44;57.62;;;28.65;;
33347;SDS011;19707;51.158;17.124;2022-12-18T11:26:51;57.60;;;27.75;;
33347;SDS011;19707;51.158;17.124;2022-12-18T11:30:06;59.30;;;27.67;;
33347;SDS011;19707;51.158;17.124;2022-12-18T11:33:10;62.13;;;28.55;;
33347;SDS011;19707;51.158;17.124;2022-12-18T11:36:23;72.70;;;32.10;;
33347;SDS011;19707;51.158;17.124;2022-12-18T11:39:31;63.23;;;29.10;;
33347;SDS011;19707;51.158;17.124;2022-12-18T11:42:52;71.12;;;31.55;;
33347;SDS011;19707;51.158;17.124;2022-12-18T11:46:10;70.35;;;32.40;;
33347;SDS011;19707;51.158;17.124;2022-12-18T11:49:34;76.45;;;33.30;;
33347;SDS011;19707;51.158;17.124;2022-12-18T11:52:37;72.22;;;32.30;;
33347;SDS011;19707;51.158;17.124;2022-12-18T11:55:47;60.50;;;28.60;;
33347;SDS011;19707;51.158;17.124;2022-12-18T12:09:42;72.92;;;32.23;;
33347;SDS011;19707;51.158;17.124;2022-12-18T12:26:52;80.60;;;38.00;;
33347;SDS011;19707;51.158;17.124;2022-12-18T12:39:00;79.32;;;34.00;;
33347;SDS011;19707;51.158;17.124;2022-12-18T12:45:27;68.20;;;31.87;;
33347;SDS011;19707;51.158;17.124;2022-12-18T12:48:48;68.55;;;28.55;;
33347;SDS011;19707;51.158;17.124;2022-12-18T12:52:07;69.90;;;31.82;;
33347;SDS011;19707;51.158;17.124;2022-12-18T12:55:26;73.55;;;33.38;;
33347;SDS011;19707;51.158;17.124;2022-12-18T12:58:31;74.10;;;32.93;;
33347;SDS011;19707;51.158;17.124;2022-12-18T13:02:18;64.95;;;28.77;;
33347;SDS011;19707;51.158;17.124;2022-12-18T13:08:55;84.40;;;33.48;;
33347;SDS011;19707;51.158;17.124;2022-12-18T13:12:08;99.60;;;41.33;;
33347;SDS011;19707;51.158;17.124;2022-12-18T13:18:52;88.45;;;33.98;;
33347;SDS011;19707;51.158;17.124;2022-12-18T13:21:57;71.33;;;31.33;;
33347;SDS011;19707;51.158;17.124;2022-12-18T13:24:59;71.50;;;29.32;;
33347;SDS011;19707;51.158;17.124;2022-12-18T13:34:43;75.90;;;34.70;;
33347;SDS011;19707;51.158;17.124;2022-12-18T13:37:51;74.95;;;35.05;;
33347;SDS011;19707;51.158;17.124;2022-12-18T13:40:56;73.15;;;31.65;;
33347;SDS011;19707;51.158;17.124;2022-12-18T13:47:33;60.88;;;27.20;;
33347;SDS011;19707;51.158;17.124;2022-12-18T13:50:38;75.37;;;32.20;;
33347;SDS011;19707;51.158;17.124;2022-12-18T13:53:44;75.45;;;33.08;;
33347;SDS011;19707;51.158;17.124;2022-12-18T13:56:54;68.92;;;32.05;;
33347;SDS011;19707;51.158;17.124;2022-12-18T13:59:56;83.75;;;32.48;;
33347;SDS011;19707;51.158;17.124;2022-12-18T14:03:00;69.05;;;30.15;;
33347;SDS011;19707;51.158;17.124;2022-12-18T14:06:03;88.27;;;34.23;;
33347;SDS011;19707;51.158;17.124;2022-12-18T14:09:09;70.70;;;31.95;;
33347;SDS011;19707;51.158;17.124;2022-12-18T14:12:15;79.90;;;33.10;;
33347;SDS011;19707;51.158;17.124;2022-12-18T14:15:39;55.30;;;24.10;;
33347;SDS011;19707;51.158;17.124;2022-12-18T14:21:58;85.10;;;38.58;;
33347;SDS011;19707;51.158;17.124;2022-12-18T14:25:33;88.65;;;37.58;;
33347;SDS011;19707;51.158;17.124;2022-12-18T14:28:22;84.03;;;33.25;;
33347;SDS011;19707;51.158;17.124;2022-12-18T14:31:25;90.85;;;38.48;;
33347;SDS011;19707;51.158;17.124;2022-12-18T14:34:29;96.67;;;40.60;;
33347;SDS011;19707;51.158;17.124;2022-12-18T14:37:30;108.12;;;44.80;;
33347;SDS011;19707;51.158;17.124;2022-12-18T14:40:32;99.35;;;40.23;;
33347;SDS011;19707;51.158;17.124;2022-12-18T14:43:35;102.47;;;41.02;;
33347;SDS011;19707;51.158;17.124;2022-12-18T14:46:39;98.70;;;39.70;;
33347;SDS011;19707;51.158;17.124;2022-12-18T14:49:42;112.32;;;46.40;;
33347;SDS011;19707;51.158;17.124;2022-12-18T14:52:44;102.38;;;42.65;;
33347;SDS011;19707;51.158;17.124;2022-12-18T14:55:46;130.50;;;49.83;;
33347;SDS011;19707;51.158;17.124;2022-12-18T14:58:49;113.37;;;44.27;;
33347;SDS011;19707;51.158;17.124;2022-12-18T15:08:36;102.38;;;43.80;;
33347;SDS011;19707;51.158;17.124;2022-12-18T15:14:46;114.57;;;45.88;;
33347;SDS011;19707;51.158;17.124;2022-12-18T15:17:48;115.52;;;45.58;;
33347;SDS011;19707;51.158;17.124;2022-12-18T15:20:53;95.05;;;39.50;;
33347;SDS011;19707;51.158;17.124;2022-12-18T15:23:59;105.78;;;43.25;;
33347;SDS011;19707;51.158;17.124;2022-12-18T15:27:01;99.25;;;40.10;;
33347;SDS011;19707;51.158;17.124;2022-12-18T15:33:30;102.50;;;39.05;;
33347;SDS011;19707;51.158;17.124;2022-12-18T15:36:28;103.07;;;40.73;;
33347;SDS011;19707;51.158;17.124;2022-12-18T15:39:30;107.72;;;40.73;;
33347;SDS011;19707;51.158;17.124;2022-12-18T15:42:32;102.45;;;43.50;;
33347;SDS011;19707;51.158;17.124;2022-12-18T15:45:52;92.45;;;36.20;;
33347;SDS011;19707;51.158;17.124;2022-12-18T15:48:54;101.47;;;39.95;;
33347;SDS011;19707;51.158;17.124;2022-12-18T15:51:58;91.63;;;38.35;;
33347;SDS011;19707;51.158;17.124;2022-12-18T15:55:00;101.95;;;39.27;;
33347;SDS011;19707;51.158;17.124;2022-12-18T15:58:20;104.50;;;39.55;;
33347;SDS011;19707;51.158;17.124;2022-12-18T16:01:23;98.37;;;40.12;;
33347;SDS011;19707;51.158;17.124;2022-12-18T16:04:26;105.30;;;40.43;;
33347;SDS011;19707;51.158;17.124;2022-12-18T16:07:27;88.17;;;36.42;;
33347;SDS011;19707;51.158;17.124;2022-12-18T16:10:29;102.47;;;41.18;;
33347;SDS011;19707;51.158;17.124;2022-12-18T16:13:31;81.50;;;35.95;;
33347;SDS011;19707;51.158;17.124;2022-12-18T16:16:32;90.10;;;35.70;;
33347;SDS011;19707;51.158;17.124;2022-12-18T16:19:34;112.90;;;45.28;;
33347;SDS011;19707;51.158;17.124;2022-12-18T16:22:36;94.07;;;35.70;;
33347;SDS011;19707;51.158;17.124;2022-12-18T16:25:37;93.60;;;36.35;;
33347;SDS011;19707;51.158;17.124;2022-12-18T16:28:41;101.92;;;40.65;;
33347;SDS011;19707;51.158;17.124;2022-12-18T16:31:43;81.70;;;34.90;;
33347;SDS011;19707;51.158;17.124;2022-12-18T16:34:45;104.45;;;41.08;;
33347;SDS011;19707;51.158;17.124;2022-12-18T16:37:47;116.57;;;44.83;;
33347;SDS011;19707;51.158;17.124;2022-12-18T16:40:49;85.62;;;38.92;;
33347;SDS011;19707;51.158;17.124;2022-12-18T16:44:11;88.58;;;38.48;;
33347;SDS011;19707;51.158;17.124;2022-12-18T16:47:13;98.87;;;38.80;;
33347;SDS011;19707;51.158;17.124;2022-12-18T16:50:15;109.52;;;44.05;;
33347;SDS011;19707;51.158;17.124;2022-12-18T16:53:17;108.27;;;43.28;;
33347;SDS011;19707;51.158;17.124;2022-12-18T16:56:19;107.50;;;43.48;;
33347;SDS011;19707;51.158;17.124;2022-12-18T16:59:21;105.32;;;43.30;;
33347;SDS011;19707;51.158;17.124;2022-12-18T17:02:24;122.78;;;47.40;;
33347;SDS011;19707;51.158;17.124;2022-12-18T17:05:27;112.83;;;45.50;;
33347;SDS011;19707;51.158;17.124;2022-12-18T17:08:29;113.45;;;43.95;;
33347;SDS011;19707;51.158;17.124;2022-12-18T17:11:32;109.50;;;39.80;;
33347;SDS011;19707;51.158;17.124;2022-12-18T17:14:35;117.28;;;47.65;;
33347;SDS011;19707;51.158;17.124;2022-12-18T17:17:37;126.42;;;49.27;;
33347;SDS011;19707;51.158;17.124;2022-12-18T17:20:39;137.18;;;50.83;;
33347;SDS011;19707;51.158;17.124;2022-12-18T17:23:41;131.40;;;52.65;;
33347;SDS011;19707;51.158;17.124;2022-12-18T17:26:44;145.55;;;54.98;;
33347;SDS011;19707;51.158;17.124;2022-12-18T17:29:46;137.15;;;52.35;;
33347;SDS011;19707;51.158;17.124;2022-12-18T17:32:47;157.43;;;60.88;;
33347;SDS011;19707;51.158;17.124;2022-12-18T17:35:49;159.72;;;62.62;;
33347;SDS011;19707;51.158;17.124;2022-12-18T17:38:51;150.80;;;57.85;;
33347;SDS011;19707;51.158;17.124;2022-12-18T17:41:55;160.48;;;63.02;;
33347;SDS011;19707;51.158;17.124;2022-12-18T17:44:57;157.50;;;59.15;;
33347;SDS011;19707;51.158;17.124;2022-12-18T17:47:58;164.47;;;63.70;;
33347;SDS011;19707;51.158;17.124;2022-12-18T17:51:00;165.77;;;63.45;;
33347;SDS011;19707;51.158;17.124;2022-12-18T17:54:04;175.57;;;64.47;;
33347;SDS011;19707;51.158;17.124;2022-12-18T17:57:06;165.88;;;62.88;;
33347;SDS011;19707;51.158;17.124;2022-12-18T18:00:09;174.40;;;64.37;;
33347;SDS011;19707;51.158;17.124;2022-12-18T18:03:14;163.05;;;61.33;;
33347;SDS011;19707;51.158;17.124;2022-12-18T18:06:16;174.32;;;64.40;;
33347;SDS011;19707;51.158;17.124;2022-12-18T18:09:18;189.07;;;63.80;;
33347;SDS011;19707;51.158;17.124;2022-12-18T18:12:21;187.82;;;69.15;;
33347;SDS011;19707;51.158;17.124;2022-12-18T18:15:42;188.50;;;68.05;;
33347;SDS011;19707;51.158;17.124;2022-12-18T18:18:43;173.53;;;63.73;;
33347;SDS011;19707;51.158;17.124;2022-12-18T18:21:46;180.93;;;66.70;;
33347;SDS011;19707;51.158;17.124;2022-12-18T18:24:49;184.30;;;66.63;;
33347;SDS011;19707;51.158;17.124;2022-12-18T18:27:51;174.62;;;67.00;;
33347;SDS011;19707;51.158;17.124;2022-12-18T18:30:53;194.82;;;71.95;;
33347;SDS011;19707;51.158;17.124;2022-12-18T18:33:55;195.38;;;69.72;;
33347;SDS011;19707;51.158;17.124;2022-12-18T18:36:58;176.55;;;61.58;;
33347;SDS011;19707;51.158;17.124;2022-12-18T18:40:00;172.28;;;57.03;;
33347;SDS011;19707;51.158;17.124;2022-12-18T18:43:03;203.25;;;74.42;;
33347;SDS011;19707;51.158;17.124;2022-12-18T18:46:05;211.75;;;76.10;;
33347;SDS011;19707;51.158;17.124;2022-12-18T18:49:06;237.20;;;87.22;;
33347;SDS011;19707;51.158;17.124;2022-12-18T18:52:09;243.45;;;87.60;;
33347;SDS011;19707;51.158;17.124;2022-12-18T18:55:11;322.33;;;114.90;;
33347;SDS011;19707;51.158;17.124;2022-12-18T18:58:12;276.92;;;100.58;;
33347;SDS011;19707;51.158;17.124;2022-12-18T19:01:18;264.88;;;98.47;;
33347;SDS011;19707;51.158;17.124;2022-12-18T19:04:20;300.13;;;111.05;;
33347;SDS011;19707;51.158;17.124;2022-12-18T19:07:22;261.68;;;97.55;;
33347;SDS011;19707;51.158;17.124;2022-12-18T19:10:23;281.55;;;101.62;;
33347;SDS011;19707;51.158;17.124;2022-12-18T19:13:27;271.02;;;97.25;;
33347;SDS011;19707;51.158;17.124;2022-12-18T19:16:31;284.05;;;99.75;;
33347;SDS011;19707;51.158;17.124;2022-12-18T19:19:34;286.62;;;109.12;;